Time;durP1;ratioP1;P1;durP2;ratioP2;P2;SDS_P1;SDS_P2;PMS_P1;PMS_P2;Temp;Humidity;BMP_temperature;BMP_pressure;BME280_temperature;BME280_humidity;BME280_pressure;Samples;Min_cycle;Max_cycle;Signal;HPM_P1;HPM_P2
2023/05/30 00:01:18;;;;;;;7.35;5.97;;;;;;;16.81;100.00;99181.75;5030998;28;20029;-76
2023/05/30 00:03:44;;;;;;;12.50;6.50;;;;;;;16.69;100.00;99189.25;5031252;28;20025;-76
2023/05/30 00:06:13;;;;;;;12.70;6.57;;;;;;;16.51;100.00;99176.91;5030630;28;20028;-76
2023/05/30 00:08:39;;;;;;;11.95;6.40;;;;;;;16.61;100.00;99181.88;5030090;28;20029;-76
2023/05/30 00:11:06;;;;;;;8.27;6.15;;;;;;;16.72;100.00;99184.88;5029817;28;20025;-76
2023/05/30 00:13:32;;;;;;;14.68;6.75;;;;;;;16.76;100.00;99187.72;5029045;28;20029;-76
2023/05/30 00:15:58;;;;;;;11.30;7.00;;;;;;;16.63;100.00;99187.16;5030576;28;20459;-76
2023/05/30 00:18:25;;;;;;;9.75;6.25;;;;;;;16.56;100.00;99179.41;5025368;28;20111;-76
2023/05/30 00:20:51;;;;;;;12.35;6.63;;;;;;;16.71;100.00;99183.22;5028859;28;20045;-76
2023/05/30 00:23:16;;;;;;;8.07;6.20;;;;;;;16.82;100.00;99180.53;5029690;28;20060;-76
2023/05/30 00:25:42;;;;;;;10.68;7.50;;;;;;;16.94;100.00;99177.47;5031004;28;20018;-76
2023/05/30 00:28:07;;;;;;;12.05;7.05;;;;;;;16.97;100.00;99175.88;5031072;28;20025;-76
2023/05/30 00:30:35;;;;;;;10.63;6.60;;;;;;;16.69;100.00;99177.97;5029610;28;20408;-76
2023/05/30 00:33:01;;;;;;;11.15;7.05;;;;;;;16.44;100.00;99171.19;5031135;28;20017;-76
2023/05/30 00:35:27;;;;;;;8.25;7.35;;;;;;;16.27;100.00;99168.53;5030308;28;20033;-76
2023/05/30 00:37:52;;;;;;;10.70;6.72;;;;;;;16.34;100.00;99173.47;5031119;28;20075;-76
2023/05/30 00:40:18;;;;;;;10.27;6.55;;;;;;;16.26;100.00;99178.19;5030817;28;20025;-76
2023/05/30 00:42:43;;;;;;;17.88;7.22;;;;;;;15.97;100.00;99168.50;5030737;28;20147;-76
2023/05/30 00:45:09;;;;;;;8.95;6.25;;;;;;;15.93;100.00;99174.06;5030637;28;20017;-75
2023/05/30 00:47:35;;;;;;;12.82;7.38;;;;;;;15.93;100.00;99181.72;5027960;28;20073;-75
2023/05/30 00:50:01;;;;;;;8.90;6.85;;;;;;;15.92;100.00;99186.53;5028741;28;20112;-75
2023/05/30 00:52:28;;;;;;;11.30;7.53;;;;;;;15.84;100.00;99179.94;5030727;28;20055;-75
2023/05/30 00:54:55;;;;;;;12.05;6.93;;;;;;;15.88;100.00;99179.19;5030588;28;20109;-76
2023/05/30 00:57:20;;;;;;;11.60;7.85;;;;;;;15.95;100.00;99184.97;5030791;28;20025;-76
2023/05/30 00:59:47;;;;;;;7.43;6.35;;;;;;;15.97;100.00;99185.41;5029762;28;20017;-76
2023/05/30 01:02:13;;;;;;;10.57;7.47;;;;;;;15.98;100.00;99192.69;5030235;28;20057;-76
2023/05/30 01:04:40;;;;;;;13.93;7.68;;;;;;;15.90;100.00;99191.75;5029626;28;20075;-76
2023/05/30 01:07:10;;;;;;;16.15;8.27;;;;;;;15.74;100.00;99191.88;5030762;28;20036;-75
2023/05/30 01:09:36;;;;;;;16.73;7.85;;;;;;;15.78;100.00;99187.09;5030569;28;20037;-75
2023/05/30 01:12:35;;;;;;;9.73;6.72;;;;;;;15.87;100.00;99189.66;5029103;28;20029;-75
2023/05/30 01:15:17;;;;;;;13.45;7.65;;;;;;;15.95;100.00;99180.13;5026088;28;20083;-75
2023/05/30 01:17:52;;;;;;;10.45;7.75;;;;;;;15.97;100.00;99186.22;5030464;28;20416;-79
2023/05/30 01:20:20;;;;;;;12.77;6.05;;;;;;;16.07;100.00;99186.75;5030933;28;20504;-79
2023/05/30 01:23:04;;;;;;;15.93;6.47;;;;;;;15.96;100.00;99189.44;5033149;28;20018;-79
2023/05/30 01:25:50;;;;;;;11.35;6.40;;;;;;;15.84;100.00;99185.59;5032568;28;20415;-79
2023/05/30 01:28:21;;;;;;;6.80;5.70;;;;;;;15.68;100.00;99182.91;5033308;28;20025;-78
2023/05/30 01:30:51;;;;;;;8.82;5.10;;;;;;;15.53;100.00;99187.47;5033385;28;20771;-79
2023/05/30 01:33:19;;;;;;;10.48;5.18;;;;;;;15.52;100.00;99180.22;5034194;28;20052;-79
2023/05/30 01:35:46;;;;;;;8.15;5.25;;;;;;;15.53;100.00;99181.84;5034406;28;20033;-79
2023/05/30 01:38:12;;;;;;;6.55;4.30;;;;;;;15.30;100.00;99191.09;5033564;28;20025;-79
2023/05/30 01:40:39;;;;;;;8.57;4.88;;;;;;;15.25;100.00;99180.13;5030224;28;20520;-79
2023/05/30 01:43:11;;;;;;;8.80;4.53;;;;;;;15.32;100.00;99198.34;5012815;28;20100;-79
2023/05/30 01:45:51;;;;;;;13.13;4.90;;;;;;;15.32;100.00;99189.91;5032050;28;20024;-79
2023/05/30 01:48:35;;;;;;;;;;;;;;;15.38;100.00;99189.22;5023661;28;20029;-79
2023/05/30 01:51:05;;;;;;;9.18;4.60;;;;;;;15.32;100.00;99178.63;5033517;28;19961;-79
2023/05/30 01:53:38;;;;;;;10.98;4.35;;;;;;;15.33;100.00;99186.72;5033569;28;20037;-79
2023/05/30 01:56:07;;;;;;;9.23;4.40;;;;;;;15.21;100.00;99182.09;5032498;28;20033;-79
2023/05/30 01:58:34;;;;;;;6.28;4.25;;;;;;;15.28;100.00;99187.03;5031554;28;20109;-79
2023/05/30 02:01:00;;;;;;;6.85;4.50;;;;;;;15.19;100.00;99194.91;5032223;28;20115;-79
2023/05/30 02:03:28;;;;;;;6.15;3.95;;;;;;;15.19;100.00;99189.28;5033371;28;20227;-79
2023/05/30 02:05:54;;;;;;;7.47;4.20;;;;;;;15.20;100.00;99186.06;5032403;28;20500;-79
2023/05/30 02:08:19;;;;;;;12.32;4.50;;;;;;;15.13;100.00;99177.50;5033575;28;20052;-79
2023/05/30 02:10:45;;;;;;;8.93;4.15;;;;;;;15.20;100.00;99185.28;5033722;28;20103;-79
2023/05/30 02:13:11;;;;;;;8.38;4.45;;;;;;;15.23;100.00;99185.34;5031353;28;20025;-79
2023/05/30 02:15:36;;;;;;;11.43;5.07;;;;;;;15.08;100.00;99170.16;5031670;28;20029;-79
2023/05/30 02:18:02;;;;;;;11.02;4.57;;;;;;;15.04;100.00;99180.56;5033113;28;20408;-79
2023/05/30 02:20:27;;;;;;;6.63;4.03;;;;;;;15.17;100.00;99181.19;5032051;28;20048;-79
2023/05/30 02:22:53;;;;;;;15.40;3.58;;;;;;;15.11;100.00;99177.84;5031971;28;20021;-79
2023/05/30 02:25:20;;;;;;;11.80;4.75;;;;;;;15.01;100.00;99179.28;5033318;28;20022;-79
2023/05/30 02:27:47;;;;;;;7.85;4.00;;;;;;;14.99;100.00;99176.03;5033211;28;20047;-79
2023/05/30 02:30:13;;;;;;;13.63;4.43;;;;;;;14.99;100.00;99183.66;5031313;28;20098;-79
2023/05/30 02:32:39;;;;;;;9.60;3.78;;;;;;;14.91;100.00;99185.53;5030978;28;20031;-79
2023/05/30 02:35:04;;;;;;;11.27;4.70;;;;;;;15.09;100.00;99185.06;5033092;28;20480;-79
2023/05/30 02:37:30;;;;;;;7.28;4.38;;;;;;;15.08;100.00;99169.34;5033042;28;20129;-79
2023/05/30 02:39:55;;;;;;;9.88;4.55;;;;;;;14.99;100.00;99156.31;5031515;28;20029;-79
2023/05/30 02:42:21;;;;;;;12.90;4.80;;;;;;;15.13;100.00;99169.84;5032923;28;20027;-79
2023/05/30 02:44:46;;;;;;;9.85;4.68;;;;;;;15.14;100.00;99171.50;5031437;28;20412;-79
2023/05/30 02:47:12;;;;;;;10.98;4.43;;;;;;;15.20;100.00;99180.44;5031160;28;20021;-79
2023/05/30 02:49:37;;;;;;;13.43;4.95;;;;;;;15.21;100.00;99186.91;5032279;28;20017;-79
2023/05/30 02:52:03;;;;;;;12.68;5.72;;;;;;;15.10;100.00;99184.69;5032654;28;20052;-79
2023/05/30 02:54:31;;;;;;;10.07;4.95;;;;;;;15.14;100.00;99188.41;5032626;28;20043;-79
2023/05/30 02:56:57;;;;;;;13.13;5.70;;;;;;;15.08;100.00;99184.25;5032563;28;20489;-79
2023/05/30 02:59:22;;;;;;;10.18;5.63;;;;;;;15.15;100.00;99183.56;5030607;28;20032;-79
2023/05/30 03:01:48;;;;;;;20.50;6.80;;;;;;;15.20;100.00;99196.53;5031314;28;20025;-79
2023/05/30 03:04:14;;;;;;;11.75;5.50;;;;;;;15.10;100.00;99197.97;5032231;28;20018;-79
2023/05/30 03:06:40;;;;;;;10.90;5.57;;;;;;;15.06;100.00;99189.44;5031221;28;20100;-79
2023/05/30 03:09:06;;;;;;;20.67;6.47;;;;;;;15.06;100.00;99191.44;5024114;28;20405;-79
2023/05/30 03:11:31;;;;;;;11.43;6.22;;;;;;;15.07;100.00;99193.88;5032037;28;20036;-79
2023/05/30 03:13:57;;;;;;;10.85;5.70;;;;;;;15.01;100.00;99195.34;5032211;28;20045;-80
2023/05/30 03:16:22;;;;;;;10.27;5.85;;;;;;;14.99;100.00;99192.94;5032084;28;20404;-79
2023/05/30 03:18:49;;;;;;;12.07;6.05;;;;;;;14.95;100.00;99202.50;5022514;28;20162;-79
2023/05/30 03:21:15;;;;;;;11.98;6.50;;;;;;;14.83;100.00;99206.25;5023097;28;20049;-79
2023/05/30 03:23:41;;;;;;;17.80;6.53;;;;;;;14.96;100.00;99196.50;5021122;28;20412;-80
2023/05/30 03:26:06;;;;;;;12.73;4.47;;;;;;;14.92;100.00;99198.41;5017222;28;20079;-79
2023/05/30 03:28:33;;;;;;;12.52;6.32;;;;;;;14.91;100.00;99210.88;5022045;28;20416;-79
2023/05/30 03:30:58;;;;;;;12.63;5.13;;;;;;;14.95;100.00;99211.75;5029208;28;20087;-79
2023/05/30 03:33:24;;;;;;;15.10;5.97;;;;;;;15.19;100.00;99212.59;5026515;28;20592;-79
2023/05/30 03:35:50;;;;;;;9.65;3.85;;;;;;;15.47;100.00;99225.63;5028663;28;20485;-75
2023/05/30 03:38:16;;;;;;;13.70;4.30;;;;;;;15.63;100.00;99222.69;5029924;28;20033;-77
2023/05/30 03:40:41;;;;;;;6.47;4.00;;;;;;;15.76;100.00;99217.66;5030430;28;20024;-76
2023/05/30 03:43:07;;;;;;;6.40;4.95;;;;;;;15.46;100.00;99226.00;5030505;28;20041;-74
2023/05/30 03:45:32;;;;;;;7.72;3.35;;;;;;;15.48;100.00;99230.06;5028612;28;20072;-74
2023/05/30 03:47:58;;;;;;;21.27;5.57;;;;;;;15.42;100.00;99234.38;5029744;28;20077;-76
2023/05/30 03:50:23;;;;;;;6.30;4.68;;;;;;;15.10;100.00;99228.94;5028145;28;20021;-73
2023/05/30 03:52:49;;;;;;;7.20;4.15;;;;;;;15.20;100.00;99233.97;5027216;28;20045;-77
2023/05/30 03:55:15;;;;;;;5.32;3.85;;;;;;;15.19;100.00;99235.16;5031247;28;20037;-74
2023/05/30 03:57:40;;;;;;;6.45;4.07;;;;;;;15.11;100.00;99220.09;5031620;28;20022;-76
2023/05/30 04:00:06;;;;;;;8.93;4.07;;;;;;;15.13;100.00;99228.19;5030122;28;20571;-74
2023/05/30 04:02:32;;;;;;;9.95;4.28;;;;;;;15.00;100.00;99222.72;5030917;28;20056;-75
2023/05/30 04:04:57;;;;;;;8.15;4.22;;;;;;;15.10;100.00;99226.94;5030566;28;20140;-73
2023/05/30 04:07:24;;;;;;;6.50;3.60;;;;;;;15.23;100.00;99235.22;5029884;28;20045;-73
2023/05/30 04:09:51;;;;;;;6.30;3.75;;;;;;;15.27;100.00;99241.75;5030331;28;20025;-73
2023/05/30 04:12:16;;;;;;;4.85;3.28;;;;;;;15.52;100.00;99247.84;5031694;28;20033;-71
2023/05/30 04:14:42;;;;;;;5.32;4.07;;;;;;;15.27;100.00;99239.75;5031290;28;20033;-77
2023/05/30 04:17:07;;;;;;;10.15;4.53;;;;;;;15.33;100.00;99251.53;5029242;28;20029;-75
2023/05/30 04:19:33;;;;;;;13.35;5.22;;;;;;;15.38;100.00;99247.59;5025058;28;20052;-76
2023/05/30 04:21:58;;;;;;;12.48;6.28;;;;;;;15.30;100.00;99250.25;5029161;28;20029;-76
2023/05/30 04:24:24;;;;;;;9.65;4.85;;;;;;;15.18;100.00;99247.59;5028853;28;20033;-76
2023/05/30 04:26:50;;;;;;;12.45;5.72;;;;;;;15.18;100.00;99246.81;5031190;28;20025;-77
2023/05/30 04:29:19;;;;;;;13.32;6.05;;;;;;;15.23;100.00;99241.69;5029780;28;20022;-79
2023/05/30 04:31:45;;;;;;;10.68;4.72;;;;;;;15.28;100.00;99260.28;5030493;28;20096;-75
2023/05/30 04:34:11;;;;;;;7.60;4.30;;;;;;;15.35;100.00;99256.81;5031059;28;20025;-74
2023/05/30 04:36:37;;;;;;;13.80;4.82;;;;;;;15.33;100.00;99262.78;5031134;28;20405;-76
2023/05/30 04:39:02;;;;;;;13.57;5.28;;;;;;;15.34;100.00;99258.00;5028924;28;20044;-76
2023/05/30 04:41:28;;;;;;;12.35;6.03;;;;;;;15.50;100.00;99264.34;5029939;28;20118;-75
2023/05/30 04:43:57;;;;;;;228.85;21.42;;;;;;;15.60;100.00;99265.72;5030770;28;20025;-78
2023/05/30 04:46:23;;;;;;;23.35;6.10;;;;;;;15.73;100.00;99274.81;5027441;28;20415;-76
2023/05/30 04:48:53;;;;;;;21.75;7.22;;;;;;;15.73;100.00;99275.63;5022484;28;20444;-75
2023/05/30 04:51:20;;;;;;;16.73;7.40;;;;;;;15.77;100.00;99281.31;5022426;28;20115;-76
2023/05/30 04:53:46;;;;;;;14.38;6.68;;;;;;;15.76;100.00;99276.88;5027419;28;20045;-75
2023/05/30 04:56:11;;;;;;;10.80;7.20;;;;;;;15.80;100.00;99276.94;5031765;28;20493;-76
2023/05/30 04:58:37;;;;;;;13.25;7.18;;;;;;;15.76;100.00;99273.25;5033476;28;20519;-76
2023/05/30 05:01:02;;;;;;;13.30;7.25;;;;;;;15.77;100.00;99275.69;5034521;28;20429;-75
2023/05/30 05:03:28;;;;;;;10.88;6.38;;;;;;;15.83;100.00;99279.84;5032633;28;20425;-75
2023/05/30 05:05:54;;;;;;;12.45;6.35;;;;;;;15.89;100.00;99287.97;5025307;28;20025;-75
2023/05/30 05:08:20;;;;;;;13.32;6.65;;;;;;;16.04;100.00;99292.69;5014955;28;20417;-75
2023/05/30 05:10:45;;;;;;;12.70;5.63;;;;;;;16.04;100.00;99289.88;5023325;28;20417;-75
2023/05/30 05:13:10;;;;;;;12.80;5.72;;;;;;;15.97;100.00;99284.94;5033727;28;20032;-75
2023/05/30 05:15:36;;;;;;;11.75;4.70;;;;;;;16.07;100.00;99289.16;5034462;28;20026;-75
2023/05/30 05:18:02;;;;;;;18.48;5.93;;;;;;;16.17;100.00;99282.03;5033039;28;20040;-75
2023/05/30 05:20:27;;;;;;;16.25;5.63;;;;;;;16.27;100.00;99280.59;5033924;28;20032;-75
2023/05/30 05:22:55;;;;;;;12.20;5.50;;;;;;;16.41;100.00;99288.47;5032960;28;20562;-75
2023/05/30 05:25:21;;;;;;;6.50;3.92;;;;;;;16.37;100.00;99284.78;5032116;28;20025;-75
2023/05/30 05:27:46;;;;;;;12.23;4.40;;;;;;;16.51;100.00;99293.47;5023753;28;20448;-75
2023/05/30 05:30:12;;;;;;;12.38;3.97;;;;;;;16.65;99.94;99298.53;5029007;28;20079;-75
2023/05/30 05:32:38;;;;;;;28.15;6.00;;;;;;;16.81;99.90;99303.97;5031078;28;20021;-75
2023/05/30 05:35:07;;;;;;;12.45;4.28;;;;;;;16.80;100.00;99295.91;5029975;28;20057;-74
2023/05/30 05:37:32;;;;;;;6.82;4.43;;;;;;;16.82;100.00;99311.25;5032080;28;20025;-73
2023/05/30 05:39:59;;;;;;;10.77;4.13;;;;;;;16.84;99.84;99299.59;5012566;28;20471;-74
2023/05/30 05:42:24;;;;;;;8.77;4.65;;;;;;;16.78;98.72;99292.66;5021929;28;20034;-74
2023/05/30 05:44:50;;;;;;;8.48;4.28;;;;;;;16.85;97.96;99304.03;5028858;28;20021;-74
2023/05/30 05:47:15;;;;;;;8.77;4.18;;;;;;;17.03;97.19;99312.78;5028830;28;20029;-74
2023/05/30 05:49:41;;;;;;;13.15;4.00;;;;;;;17.01;96.49;99311.53;5030956;28;20033;-76
2023/05/30 05:52:06;;;;;;;14.77;5.35;;;;;;;17.04;97.45;99305.13;5030049;28;20057;-75
2023/05/30 05:54:32;;;;;;;11.65;5.90;;;;;;;17.15;97.94;99308.91;5027558;28;20033;-78
2023/05/30 05:56:57;;;;;;;11.57;5.85;;;;;;;17.18;96.16;99299.66;5029137;28;20037;-76
2023/05/30 05:59:22;;;;;;;22.88;8.88;;;;;;;17.21;95.49;99313.03;5028865;28;20091;-74
2023/05/30 06:01:48;;;;;;;27.13;21.25;;;;;;;17.26;95.45;99304.22;5024175;28;20037;-75
2023/05/30 06:04:14;;;;;;;20.23;11.63;;;;;;;17.20;94.09;99300.09;5023141;28;20021;-74
2023/05/30 06:06:39;;;;;;;8.80;6.80;;;;;;;17.37;93.59;99309.16;5028867;28;20021;-75
2023/05/30 06:09:05;;;;;;;15.60;6.05;;;;;;;17.30;92.82;99307.06;5029374;28;20033;-73
2023/05/30 06:11:31;;;;;;;11.93;5.43;;;;;;;17.36;91.88;99313.19;5029888;28;20117;-73
2023/05/30 06:13:56;;;;;;;8.85;4.97;;;;;;;17.41;93.31;99318.53;5029532;28;20029;-76
2023/05/30 06:16:22;;;;;;;9.20;4.50;;;;;;;17.32;91.88;99313.19;5023684;28;20037;-74
2023/05/30 06:18:47;;;;;;;9.45;4.43;;;;;;;17.39;92.22;99318.91;5023348;28;20190;-74
2023/05/30 06:21:13;;;;;;;11.63;5.68;;;;;;;17.54;91.44;99319.88;5020617;28;20032;-73
2023/05/30 06:23:38;;;;;;;6.07;5.30;;;;;;;17.44;91.44;99325.44;5023054;28;20030;-73
2023/05/30 06:26:04;;;;;;;9.65;4.20;;;;;;;17.47;91.72;99322.63;5023831;28;20512;-73
2023/05/30 06:28:29;;;;;;;27.55;6.35;;;;;;;17.60;92.09;99328.00;5014848;28;20025;-73
2023/05/30 06:30:55;;;;;;;17.10;8.15;;;;;;;17.75;92.15;99326.16;5028117;28;20025;-73
2023/05/30 06:33:20;;;;;;;13.52;5.32;;;;;;;17.66;91.89;99323.66;5015099;28;20507;-74
2023/05/30 06:35:46;;;;;;;13.90;5.32;;;;;;;17.62;92.42;99325.63;5014484;28;20099;-73
2023/05/30 06:38:12;;;;;;;8.88;4.93;;;;;;;17.50;92.37;99318.22;5013165;28;20528;-72
2023/05/30 06:40:37;;;;;;;9.63;5.25;;;;;;;17.39;91.82;99323.75;5028441;28;20128;-72
2023/05/30 06:43:03;;;;;;;7.50;4.60;;;;;;;17.26;92.44;99318.34;5014177;28;20066;-72
2023/05/30 06:45:28;;;;;;;16.33;7.22;;;;;;;17.48;92.63;99323.44;5013934;28;20057;-73
2023/05/30 06:47:54;;;;;;;9.88;4.90;;;;;;;17.39;92.99;99326.56;5029437;28;20516;-73
2023/05/30 06:50:20;;;;;;;9.63;5.05;;;;;;;17.47;92.52;99322.63;5015006;28;20471;-73
2023/05/30 06:52:45;;;;;;;14.50;5.55;;;;;;;17.46;92.66;99329.47;5015480;28;20091;-72
2023/05/30 06:55:10;;;;;;;10.82;5.22;;;;;;;17.49;92.00;99325.06;5014277;28;20026;-72
2023/05/30 06:57:38;;;;;;;11.25;5.55;;;;;;;17.70;92.35;99327.31;5013236;28;20500;-72
2023/05/30 07:00:05;;;;;;;12.00;5.57;;;;;;;17.81;91.91;99316.13;5016848;28;20104;-72
2023/05/30 07:02:30;;;;;;;7.38;5.63;;;;;;;18.00;90.64;99325.59;5017381;28;20032;-73
2023/05/30 07:04:56;;;;;;;11.07;5.10;;;;;;;18.09;90.26;99324.09;5027313;28;20013;-73
2023/05/30 07:07:21;;;;;;;11.40;5.43;;;;;;;18.26;88.67;99326.69;5015682;28;20157;-73
2023/05/30 07:09:47;;;;;;;8.55;5.15;;;;;;;18.26;89.21;99324.66;5014894;28;20112;-72
2023/05/30 07:12:13;;;;;;;11.93;5.45;;;;;;;18.41;88.64;99336.94;5027104;28;20025;-73
2023/05/30 07:14:39;;;;;;;11.90;5.97;;;;;;;18.55;86.79;99336.22;5018427;28;20111;-73
2023/05/30 07:17:06;;;;;;;7.07;4.85;;;;;;;18.48;84.58;99348.31;5024089;28;20026;-72
2023/05/30 07:19:32;;;;;;;8.98;5.40;;;;;;;18.72;85.22;99345.25;5012816;28;20033;-72
2023/05/30 07:21:57;;;;;;;8.55;4.22;;;;;;;18.56;82.07;99346.34;5026313;28;20029;-73
2023/05/30 07:24:22;;;;;;;6.10;4.03;;;;;;;18.50;82.47;99343.06;5017499;28;20515;-73
2023/05/30 07:26:51;;;;;;;11.43;4.78;;;;;;;18.73;82.21;99350.50;5018847;28;20456;-72
2023/05/30 07:29:17;;;;;;;6.25;4.65;;;;;;;18.71;82.46;99344.44;5024434;28;20515;-73
2023/05/30 07:31:43;;;;;;;14.40;6.60;;;;;;;18.82;82.46;99350.16;5024389;28;20022;-72
2023/05/30 07:34:09;;;;;;;10.57;5.60;;;;;;;18.66;82.77;99351.28;5014773;28;20097;-72
2023/05/30 07:36:34;;;;;;;11.00;4.35;;;;;;;18.73;82.39;99346.88;5011190;28;20014;-72
2023/05/30 07:39:00;;;;;;;9.93;5.75;;;;;;;18.70;83.57;99344.81;5019818;28;20416;-72
2023/05/30 07:41:26;;;;;;;9.80;4.40;;;;;;;18.88;82.34;99357.09;5023856;28;20036;-72
2023/05/30 07:43:51;;;;;;;8.25;5.20;;;;;;;18.99;81.63;99351.47;5025143;28;20447;-73
2023/05/30 07:46:17;;;;;;;11.02;4.03;;;;;;;18.96;81.59;99349.44;5022070;28;20359;-72
2023/05/30 07:48:43;;;;;;;10.00;4.78;;;;;;;18.94;81.48;99363.22;5018363;28;20402;-73
2023/05/30 07:51:10;;;;;;;12.52;6.43;;;;;;;18.90;78.45;99360.34;5026241;28;20152;-73
2023/05/30 07:53:36;;;;;;;13.35;8.70;;;;;;;18.72;79.39;99365.09;5025302;28;20030;-72
2023/05/30 07:56:02;;;;;;;47.22;38.35;;;;;;;18.83;80.33;99365.97;5018942;28;20021;-73
2023/05/30 07:58:29;;;;;;;18.65;11.15;;;;;;;19.18;79.19;99378.75;5025443;28;20053;-72
2023/05/30 08:00:55;;;;;;;8.15;5.07;;;;;;;19.41;78.68;99374.81;5020161;28;20029;-73
2023/05/30 08:03:21;;;;;;;8.50;4.30;;;;;;;19.30;78.71;99377.63;5026662;28;20033;-72
2023/05/30 08:05:50;;;;;;;9.68;4.53;;;;;;;19.40;77.75;99373.19;5021291;28;20033;-72
2023/05/30 08:08:16;;;;;;;6.27;4.27;;;;;;;19.17;77.57;99379.16;5025352;28;20033;-73
2023/05/30 08:10:42;;;;;;;6.97;4.32;;;;;;;18.92;79.03;99380.59;5025229;28;20452;-72
2023/05/30 08:13:07;;;;;;;9.00;4.07;;;;;;;19.14;79.20;99377.13;5020635;28;20040;-74
2023/05/30 08:15:33;;;;;;;6.43;3.97;;;;;;;19.45;77.89;99384.19;5021641;28;20087;-73
2023/05/30 08:18:00;;;;;;;10.32;4.57;;;;;;;19.60;78.14;99370.84;5021826;28;20420;-74
2023/05/30 08:20:26;;;;;;;6.22;4.40;;;;;;;19.65;78.15;99366.81;5010499;28;20707;-73
2023/05/30 08:22:52;;;;;;;12.05;4.95;;;;;;;19.78;77.88;99382.25;5010503;28;20030;-73
2023/05/30 08:25:23;;;;;;;9.52;4.28;;;;;;;19.90;76.96;99380.28;5017542;28;20033;-74
2023/05/30 08:27:55;;;;;;;12.95;4.07;;;;;;;19.94;76.76;99375.47;5018801;28;20037;-73
2023/05/30 08:30:21;;;;;;;12.90;4.60;;;;;;;19.98;76.06;99381.94;5027694;28;20087;-74
2023/05/30 08:32:46;;;;;;;11.40;4.55;;;;;;;20.09;75.50;99381.16;5029415;28;20033;-74
2023/05/30 08:35:13;;;;;;;8.27;4.60;;;;;;;20.14;75.77;99375.09;5029922;28;20120;-75
2023/05/30 08:37:39;;;;;;;10.65;4.35;;;;;;;20.12;75.98;99380.34;5028953;28;20025;-75
2023/05/30 08:40:09;;;;;;;8.70;4.85;;;;;;;19.83;75.37;99381.06;5029432;28;20080;-74
2023/05/30 08:42:34;;;;;;;7.53;3.83;;;;;;;19.46;76.47;99368.78;5030363;28;20071;-75
2023/05/30 08:45:00;;;;;;;13.13;4.53;;;;;;;19.50;77.21;99378.13;5029156;28;20033;-75
2023/05/30 08:47:26;;;;;;;5.60;4.25;;;;;;;19.57;77.09;99379.38;5036235;28;20565;-74
2023/05/30 08:49:52;;;;;;;10.82;4.68;;;;;;;19.56;77.36;99383.41;5024830;28;20412;-75
2023/05/30 08:52:18;;;;;;;8.38;4.40;;;;;;;19.48;77.56;99386.22;5029152;28;20073;-74
2023/05/30 08:55:11;;;;;;;8.23;4.43;;;;;;;19.57;76.30;99385.03;5029932;28;20553;-75
2023/05/30 08:57:39;;;;;;;6.82;4.47;;;;;;;19.83;75.38;99391.63;5012827;28;20048;-75
2023/05/30 09:00:08;;;;;;;7.50;4.25;;;;;;;20.09;74.53;99387.66;5028543;28;20025;-75
2023/05/30 09:02:35;;;;;;;6.60;4.68;;;;;;;20.10;76.27;99379.94;5030179;28;20051;-74
2023/05/30 09:05:01;;;;;;;9.18;4.97;;;;;;;20.26;76.46;99388.88;5030097;28;20021;-74
2023/05/30 09:07:29;;;;;;;13.32;5.10;;;;;;;20.28;76.07;99380.81;5029933;28;20100;-76
2023/05/30 09:09:56;;;;;;;8.35;4.50;;;;;;;20.36;75.96;99383.63;5028576;28;20033;-74
2023/05/30 09:12:22;;;;;;;9.20;4.78;;;;;;;20.48;74.88;99386.91;5029851;28;20026;-75
2023/05/30 09:14:48;;;;;;;7.38;4.60;;;;;;;20.43;74.28;99372.28;5030300;28;20029;-73
2023/05/30 09:17:13;;;;;;;7.53;5.25;;;;;;;20.54;74.18;99383.66;5030227;28;20051;-73
2023/05/30 09:19:39;;;;;;;5.07;3.67;;;;;;;20.55;72.64;99388.09;5030544;28;20052;-74
2023/05/30 09:22:06;;;;;;;9.48;3.88;;;;;;;20.65;71.90;99392.97;5030753;28;20034;-73
2023/05/30 09:25:01;;;;;;;5.53;3.58;;;;;;;20.66;71.52;99388.13;5028702;28;20026;-73
2023/05/30 09:27:28;;;;;;;8.10;4.88;;;;;;;20.66;72.41;99388.13;5028895;28;20104;-73
2023/05/30 09:29:55;;;;;;;8.70;4.05;;;;;;;20.82;70.66;99384.91;5020979;28;20045;-72
2023/05/30 09:32:28;;;;;;;7.35;3.78;;;;;;;20.93;71.42;99382.84;5023813;28;20029;-73
2023/05/30 09:34:57;;;;;;;8.35;4.43;;;;;;;20.98;72.26;99378.78;5022499;28;20030;-73
2023/05/30 09:37:23;;;;;;;8.25;4.30;;;;;;;21.14;70.65;99387.69;5025273;28;20026;-73
2023/05/30 09:40:10;;;;;;;10.20;4.80;;;;;;;21.28;69.58;99383.97;5015066;28;20033;-73
2023/05/30 09:42:50;;;;;;;8.65;4.78;;;;;;;21.33;68.29;99377.06;5017299;28;20026;-73
2023/05/30 09:45:16;;;;;;;;;;;;;;;21.43;68.75;99383.97;5021055;28;20017;-74
2023/05/30 09:47:44;;;;;;;7.55;4.53;;;;;;;21.65;69.21;99381.84;5015791;28;20055;-75
2023/05/30 09:50:12;;;;;;;7.53;4.90;;;;;;;21.73;67.08;99374.91;5021695;28;20538;-73
2023/05/30 09:52:38;;;;;;;6.80;4.43;;;;;;;21.73;66.68;99372.06;5022661;28;20041;-74
2023/05/30 09:55:06;;;;;;;9.45;3.88;;;;;;;21.94;68.97;99376.00;5030708;28;20508;-73
2023/05/30 09:57:38;;;;;;;6.18;4.30;;;;;;;22.09;65.70;99370.25;5024117;28;20068;-73
2023/05/30 10:00:11;;;;;;;6.15;3.75;;;;;;;22.11;65.88;99370.66;5019370;28;20025;-74
2023/05/30 10:02:42;;;;;;;6.72;4.63;;;;;;;22.11;66.11;99364.94;5012997;28;20033;-75
2023/05/30 10:05:28;;;;;;;7.60;4.50;;;;;;;22.36;66.03;99364.75;5018039;28;20034;-74
2023/05/30 10:07:55;;;;;;;6.78;3.88;;;;;;;22.62;64.77;99367.44;5014215;28;20151;-72
2023/05/30 10:10:21;;;;;;;9.73;4.30;;;;;;;22.78;63.71;99362.00;5025816;28;20101;-73
2023/05/30 10:12:48;;;;;;;10.00;5.53;;;;;;;22.28;63.41;99358.31;5029073;28;20032;-74
2023/05/30 10:15:15;;;;;;;4.65;3.47;;;;;;;22.56;62.08;99364.22;5030743;28;20167;-74
2023/05/30 10:17:53;;;;;;;11.68;4.00;;;;;;;22.61;61.65;99365.81;5027895;28;20021;-73
2023/05/30 10:20:21;;;;;;;6.20;3.70;;;;;;;22.56;61.16;99355.69;5026557;28;20047;-75
2023/05/30 10:22:52;;;;;;;5.28;3.63;;;;;;;22.98;62.32;99358.56;5015888;28;20137;-73
2023/05/30 10:25:18;;;;;;;6.53;3.63;;;;;;;23.09;60.47;99358.44;5023794;28;20408;-73
2023/05/30 10:27:57;;;;;;;5.80;3.35;;;;;;;23.47;58.21;99357.63;5023317;28;20519;-73
2023/05/30 10:30:28;;;;;;;8.75;3.47;;;;;;;23.73;57.75;99358.94;5032951;28;20028;-74
2023/05/30 10:33:07;;;;;;;7.38;3.92;;;;;;;23.61;58.61;99340.31;5032602;28;20029;-73
2023/05/30 10:35:33;;;;;;;6.38;3.63;;;;;;;23.68;57.08;99356.53;5026976;28;20022;-74
2023/05/30 10:38:00;;;;;;;5.53;3.90;;;;;;;23.68;56.82;99351.66;5026788;28;20059;-74
2023/05/30 10:40:39;;;;;;;6.90;3.55;;;;;;;23.73;56.76;99360.97;5028888;28;20085;-74
2023/05/30 10:43:13;;;;;;;7.30;3.58;;;;;;;23.69;57.01;99355.28;5029733;28;20037;-74
2023/05/30 10:46:11;;;;;;;13.55;3.83;;;;;;;23.81;56.63;99351.88;5017764;28;20095;-74
2023/05/30 10:48:58;;;;;;;4.47;3.05;;;;;;;23.59;57.09;99354.22;5031429;28;20121;-74
2023/05/30 10:51:23;;;;;;;6.55;3.80;;;;;;;23.66;56.81;99347.59;5018486;28;20595;-74
2023/05/30 10:53:49;;;;;;;6.00;3.60;;;;;;;23.87;55.39;99349.34;5025980;28;20133;-74
2023/05/30 10:56:33;;;;;;;4.88;2.97;;;;;;;23.89;55.93;99340.34;5028018;28;20492;-74
2023/05/30 10:59:01;;;;;;;5.63;3.72;;;;;;;23.79;56.53;99334.34;5026343;28;20109;-74
2023/05/30 11:01:31;;;;;;;3.40;2.88;;;;;;;23.60;54.28;99330.13;5028957;28;20134;-74
2023/05/30 11:03:57;;;;;;;;;;;;;;;23.78;55.84;99329.09;5031960;28;20022;-74
2023/05/30 11:06:27;;;;;;;7.05;3.70;;;;;;;23.47;56.66;99318.50;5020249;28;19960;-74
2023/05/30 11:09:03;;;;;;;4.53;3.47;;;;;;;23.92;55.98;99326.03;5023650;28;20396;-74
2023/05/30 11:11:34;;;;;;;5.22;3.80;;;;;;;24.34;54.50;99322.97;5023519;28;20031;-74
2023/05/30 11:14:04;;;;;;;4.05;3.47;;;;;;;24.52;53.61;99321.84;5028574;28;20096;-74
2023/05/30 11:16:30;;;;;;;5.45;3.90;;;;;;;24.65;53.23;99319.97;5029084;28;20029;-74
2023/05/30 11:19:09;;;;;;;4.90;3.28;;;;;;;24.57;52.16;99320.53;5023644;28;20409;-74
2023/05/30 11:21:58;;;;;;;7.68;3.20;;;;;;;24.37;53.26;99312.69;5028405;28;20037;-74
2023/05/30 11:24:29;;;;;;;3.58;3.03;;;;;;;24.36;52.85;99308.22;5025438;28;20030;-74
2023/05/30 11:27:00;;;;;;;6.80;3.95;;;;;;;24.57;53.32;99306.25;5023105;28;20500;-74
2023/05/30 11:29:28;;;;;;;5.25;3.85;;;;;;;24.51;53.75;99297.38;5021160;28;20026;-74